sensor_id;sensor_type;location;lat;lon;timestamp;P1;durP1;ratioP1;P2;durP2;ratioP2
71800;SDS011;59647;55.838;37.292;2022-08-19T00:01:37;11.13;;;3.90;;
71800;SDS011;59647;55.838;37.292;2022-08-19T00:04:06;10.02;;;3.58;;
71800;SDS011;59647;55.838;37.292;2022-08-19T00:06:34;9.50;;;3.45;;
71800;SDS011;59647;55.838;37.292;2022-08-19T00:09:01;7.57;;;3.10;;
71800;SDS011;59647;55.838;37.292;2022-08-19T00:11:28;10.55;;;3.70;;
71800;SDS011;59647;55.838;37.292;2022-08-19T00:13:55;13.85;;;4.43;;
71800;SDS011;59647;55.838;37.292;2022-08-19T00:16:22;9.00;;;3.15;;
71800;SDS011;59647;55.838;37.292;2022-08-19T00:18:48;7.95;;;4.13;;
71800;SDS011;59647;55.838;37.292;2022-08-19T00:21:14;7.90;;;3.70;;
71800;SDS011;59647;55.838;37.292;2022-08-19T00:23:41;8.05;;;3.90;;
71800;SDS011;59647;55.838;37.292;2022-08-19T00:26:08;12.23;;;3.80;;
71800;SDS011;59647;55.838;37.292;2022-08-19T00:28:35;13.55;;;3.53;;
71800;SDS011;59647;55.838;37.292;2022-08-19T00:31:05;24.10;;;4.30;;
71800;SDS011;59647;55.838;37.292;2022-08-19T00:33:32;7.25;;;4.00;;
71800;SDS011;59647;55.838;37.292;2022-08-19T00:35:59;13.52;;;4.20;;
71800;SDS011;59647;55.838;37.292;2022-08-19T00:38:26;7.18;;;3.92;;
71800;SDS011;59647;55.838;37.292;2022-08-19T00:40:52;8.88;;;4.32;;
71800;SDS011;59647;55.838;37.292;2022-08-19T00:43:18;11.30;;;4.35;;
71800;SDS011;59647;55.838;37.292;2022-08-19T00:45:47;10.00;;;4.78;;
71800;SDS011;59647;55.838;37.292;2022-08-19T00:48:13;13.50;;;4.53;;
71800;SDS011;59647;55.838;37.292;2022-08-19T00:50:40;11.50;;;4.20;;
71800;SDS011;59647;55.838;37.292;2022-08-19T00:53:09;10.35;;;4.78;;
71800;SDS011;59647;55.838;37.292;2022-08-19T00:55:36;16.98;;;4.30;;
71800;SDS011;59647;55.838;37.292;2022-08-19T00:58:04;12.25;;;4.95;;
71800;SDS011;59647;55.838;37.292;2022-08-19T01:00:37;13.77;;;4.18;;
71800;SDS011;59647;55.838;37.292;2022-08-19T01:03:07;13.75;;;3.92;;
71800;SDS011;59647;55.838;37.292;2022-08-19T01:05:35;9.98;;;3.85;;
71800;SDS011;59647;55.838;37.292;2022-08-19T01:08:02;14.43;;;4.88;;
71800;SDS011;59647;55.838;37.292;2022-08-19T01:10:32;10.90;;;4.60;;
71800;SDS011;59647;55.838;37.292;2022-08-19T01:13:02;10.88;;;4.22;;
71800;SDS011;59647;55.838;37.292;2022-08-19T01:15:30;9.85;;;4.45;;
71800;SDS011;59647;55.838;37.292;2022-08-19T01:18:00;16.80;;;4.93;;
71800;SDS011;59647;55.838;37.292;2022-08-19T01:20:29;10.50;;;4.82;;
71800;SDS011;59647;55.838;37.292;2022-08-19T01:22:56;14.05;;;5.30;;
71800;SDS011;59647;55.838;37.292;2022-08-19T01:25:26;12.50;;;4.00;;
71800;SDS011;59647;55.838;37.292;2022-08-19T01:27:56;10.30;;;4.53;;
71800;SDS011;59647;55.838;37.292;2022-08-19T01:30:27;10.73;;;5.28;;
71800;SDS011;59647;55.838;37.292;2022-08-19T01:32:56;16.90;;;5.90;;
71800;SDS011;59647;55.838;37.292;2022-08-19T01:35:24;12.65;;;5.40;;
71800;SDS011;59647;55.838;37.292;2022-08-19T01:37:54;10.52;;;5.18;;
71800;SDS011;59647;55.838;37.292;2022-08-19T01:40:23;17.50;;;5.53;;
71800;SDS011;59647;55.838;37.292;2022-08-19T01:42:51;8.02;;;4.78;;
71800;SDS011;59647;55.838;37.292;2022-08-19T01:45:18;13.10;;;5.10;;
71800;SDS011;59647;55.838;37.292;2022-08-19T01:47:47;11.38;;;5.82;;
71800;SDS011;59647;55.838;37.292;2022-08-19T01:50:12;15.20;;;5.88;;
71800;SDS011;59647;55.838;37.292;2022-08-19T01:52:39;10.35;;;5.28;;
71800;SDS011;59647;55.838;37.292;2022-08-19T01:55:08;14.70;;;5.22;;
71800;SDS011;59647;55.838;37.292;2022-08-19T01:57:37;17.88;;;5.53;;
71800;SDS011;59647;55.838;37.292;2022-08-19T02:00:06;11.45;;;5.35;;
71800;SDS011;59647;55.838;37.292;2022-08-19T02:02:36;9.93;;;5.25;;
71800;SDS011;59647;55.838;37.292;2022-08-19T02:05:03;12.07;;;4.82;;
71800;SDS011;59647;55.838;37.292;2022-08-19T02:07:29;15.85;;;6.35;;
71800;SDS011;59647;55.838;37.292;2022-08-19T02:09:55;16.48;;;5.40;;
71800;SDS011;59647;55.838;37.292;2022-08-19T02:12:21;18.33;;;5.50;;
71800;SDS011;59647;55.838;37.292;2022-08-19T02:14:47;13.75;;;5.60;;
71800;SDS011;59647;55.838;37.292;2022-08-19T02:17:13;13.73;;;5.93;;
71800;SDS011;59647;55.838;37.292;2022-08-19T02:19:39;10.05;;;5.38;;
71800;SDS011;59647;55.838;37.292;2022-08-19T02:22:05;12.75;;;5.45;;
71800;SDS011;59647;55.838;37.292;2022-08-19T02:24:31;13.35;;;5.85;;
71800;SDS011;59647;55.838;37.292;2022-08-19T02:26:57;14.57;;;5.90;;
71800;SDS011;59647;55.838;37.292;2022-08-19T02:29:23;12.35;;;5.25;;
71800;SDS011;59647;55.838;37.292;2022-08-19T02:31:49;14.15;;;5.65;;
71800;SDS011;59647;55.838;37.292;2022-08-19T02:34:16;12.60;;;5.22;;
71800;SDS011;59647;55.838;37.292;2022-08-19T02:36:42;13.57;;;5.38;;
71800;SDS011;59647;55.838;37.292;2022-08-19T02:39:08;10.68;;;4.82;;
71800;SDS011;59647;55.838;37.292;2022-08-19T02:41:34;12.15;;;4.80;;
71800;SDS011;59647;55.838;37.292;2022-08-19T02:44:01;13.25;;;5.03;;
71800;SDS011;59647;55.838;37.292;2022-08-19T02:46:30;13.23;;;5.63;;
71800;SDS011;59647;55.838;37.292;2022-08-19T02:48:58;11.10;;;5.90;;
71800;SDS011;59647;55.838;37.292;2022-08-19T02:51:31;11.43;;;5.07;;
71800;SDS011;59647;55.838;37.292;2022-08-19T02:53:58;10.27;;;5.13;;
71800;SDS011;59647;55.838;37.292;2022-08-19T02:56:25;12.88;;;5.03;;
71800;SDS011;59647;55.838;37.292;2022-08-19T02:58:52;18.15;;;5.38;;
71800;SDS011;59647;55.838;37.292;2022-08-19T03:01:21;10.98;;;5.00;;
71800;SDS011;59647;55.838;37.292;2022-08-19T03:03:49;15.00;;;5.10;;
71800;SDS011;59647;55.838;37.292;2022-08-19T03:06:16;19.98;;;5.30;;
71800;SDS011;59647;55.838;37.292;2022-08-19T03:08:43;13.63;;;4.72;;
71800;SDS011;59647;55.838;37.292;2022-08-19T03:11:18;9.95;;;4.03;;
71800;SDS011;59647;55.838;37.292;2022-08-19T03:13:46;12.63;;;5.22;;
71800;SDS011;59647;55.838;37.292;2022-08-19T03:16:14;14.27;;;4.55;;
71800;SDS011;59647;55.838;37.292;2022-08-19T03:18:41;13.18;;;4.60;;
71800;SDS011;59647;55.838;37.292;2022-08-19T03:21:07;12.75;;;5.10;;
71800;SDS011;59647;55.838;37.292;2022-08-19T03:23:33;11.00;;;4.60;;
71800;SDS011;59647;55.838;37.292;2022-08-19T03:26:02;14.88;;;4.78;;
71800;SDS011;59647;55.838;37.292;2022-08-19T03:28:29;12.00;;;4.38;;
71800;SDS011;59647;55.838;37.292;2022-08-19T03:31:00;14.20;;;5.15;;
71800;SDS011;59647;55.838;37.292;2022-08-19T03:33:28;17.42;;;5.53;;
71800;SDS011;59647;55.838;37.292;2022-08-19T03:36:10;12.95;;;4.85;;
71800;SDS011;59647;55.838;37.292;2022-08-19T03:38:41;18.77;;;4.57;;
71800;SDS011;59647;55.838;37.292;2022-08-19T03:41:10;11.13;;;4.85;;
71800;SDS011;59647;55.838;37.292;2022-08-19T03:43:38;9.45;;;4.95;;
71800;SDS011;59647;55.838;37.292;2022-08-19T03:46:07;10.27;;;4.57;;
71800;SDS011;59647;55.838;37.292;2022-08-19T03:48:36;17.25;;;4.97;;
71800;SDS011;59647;55.838;37.292;2022-08-19T03:51:03;12.02;;;4.47;;
71800;SDS011;59647;55.838;37.292;2022-08-19T03:53:30;10.13;;;3.95;;
71800;SDS011;59647;55.838;37.292;2022-08-19T03:55:57;14.20;;;4.82;;
71800;SDS011;59647;55.838;37.292;2022-08-19T03:58:25;17.80;;;4.88;;
71800;SDS011;59647;55.838;37.292;2022-08-19T04:00:54;6.53;;;3.90;;
71800;SDS011;59647;55.838;37.292;2022-08-19T04:03:23;10.27;;;4.57;;
71800;SDS011;59647;55.838;37.292;2022-08-19T04:05:50;8.27;;;4.28;;
71800;SDS011;59647;55.838;37.292;2022-08-19T04:08:16;15.80;;;5.25;;
71800;SDS011;59647;55.838;37.292;2022-08-19T04:10:45;12.55;;;4.55;;
71800;SDS011;59647;55.838;37.292;2022-08-19T04:13:13;14.85;;;4.32;;
71800;SDS011;59647;55.838;37.292;2022-08-19T04:15:43;14.05;;;4.93;;
71800;SDS011;59647;55.838;37.292;2022-08-19T04:18:12;10.15;;;4.53;;
71800;SDS011;59647;55.838;37.292;2022-08-19T04:20:39;19.02;;;5.30;;
71800;SDS011;59647;55.838;37.292;2022-08-19T04:23:11;17.38;;;4.72;;
71800;SDS011;59647;55.838;37.292;2022-08-19T04:25:39;10.50;;;4.45;;
71800;SDS011;59647;55.838;37.292;2022-08-19T04:28:07;13.80;;;4.65;;
71800;SDS011;59647;55.838;37.292;2022-08-19T04:30:47;10.60;;;4.75;;
71800;SDS011;59647;55.838;37.292;2022-08-19T04:33:17;11.85;;;4.55;;
71800;SDS011;59647;55.838;37.292;2022-08-19T04:35:46;16.02;;;4.80;;
71800;SDS011;59647;55.838;37.292;2022-08-19T04:38:14;11.80;;;4.25;;
71800;SDS011;59647;55.838;37.292;2022-08-19T04:40:41;13.65;;;4.25;;
71800;SDS011;59647;55.838;37.292;2022-08-19T04:43:27;8.07;;;4.63;;
71800;SDS011;59647;55.838;37.292;2022-08-19T04:45:54;12.95;;;5.15;;
71800;SDS011;59647;55.838;37.292;2022-08-19T04:48:20;13.20;;;4.40;;
71800;SDS011;59647;55.838;37.292;2022-08-19T04:50:51;8.02;;;3.50;;
71800;SDS011;59647;55.838;37.292;2022-08-19T04:53:24;9.90;;;4.30;;
71800;SDS011;59647;55.838;37.292;2022-08-19T04:55:55;14.55;;;4.40;;
71800;SDS011;59647;55.838;37.292;2022-08-19T04:58:22;10.93;;;4.65;;
71800;SDS011;59647;55.838;37.292;2022-08-19T05:00:50;9.90;;;3.97;;
71800;SDS011;59647;55.838;37.292;2022-08-19T05:03:16;15.98;;;3.90;;
71800;SDS011;59647;55.838;37.292;2022-08-19T05:05:42;10.00;;;3.95;;
71800;SDS011;59647;55.838;37.292;2022-08-19T05:08:10;11.13;;;3.85;;
71800;SDS011;59647;55.838;37.292;2022-08-19T05:10:37;8.57;;;3.70;;
71800;SDS011;59647;55.838;37.292;2022-08-19T05:13:04;9.98;;;3.35;;
71800;SDS011;59647;55.838;37.292;2022-08-19T05:15:30;15.43;;;4.03;;
71800;SDS011;59647;55.838;37.292;2022-08-19T05:17:56;7.43;;;3.53;;
71800;SDS011;59647;55.838;37.292;2022-08-19T05:20:41;10.38;;;3.60;;
71800;SDS011;59647;55.838;37.292;2022-08-19T05:23:26;12.85;;;3.88;;
71800;SDS011;59647;55.838;37.292;2022-08-19T05:25:51;6.15;;;3.08;;
71800;SDS011;59647;55.838;37.292;2022-08-19T05:28:18;9.38;;;3.47;;
71800;SDS011;59647;55.838;37.292;2022-08-19T05:30:45;7.90;;;3.83;;
71800;SDS011;59647;55.838;37.292;2022-08-19T05:33:13;7.63;;;2.90;;
71800;SDS011;59647;55.838;37.292;2022-08-19T05:35:39;7.35;;;3.47;;
71800;SDS011;59647;55.838;37.292;2022-08-19T05:38:06;9.98;;;3.92;;
71800;SDS011;59647;55.838;37.292;2022-08-19T05:40:35;6.72;;;3.67;;
71800;SDS011;59647;55.838;37.292;2022-08-19T05:43:02;7.80;;;3.03;;
71800;SDS011;59647;55.838;37.292;2022-08-19T05:45:30;11.00;;;3.47;;
71800;SDS011;59647;55.838;37.292;2022-08-19T05:47:56;12.27;;;3.67;;
71800;SDS011;59647;55.838;37.292;2022-08-19T05:50:23;7.45;;;3.17;;
71800;SDS011;59647;55.838;37.292;2022-08-19T05:52:51;8.68;;;3.90;;
71800;SDS011;59647;55.838;37.292;2022-08-19T05:55:18;9.10;;;3.13;;
71800;SDS011;59647;55.838;37.292;2022-08-19T05:57:45;13.40;;;3.70;;
71800;SDS011;59647;55.838;37.292;2022-08-19T06:00:12;7.03;;;3.10;;
71800;SDS011;59647;55.838;37.292;2022-08-19T06:02:39;8.73;;;3.38;;
71800;SDS011;59647;55.838;37.292;2022-08-19T06:05:05;7.30;;;3.08;;
71800;SDS011;59647;55.838;37.292;2022-08-19T06:07:38;9.50;;;3.63;;
71800;SDS011;59647;55.838;37.292;2022-08-19T06:10:05;14.32;;;3.75;;
71800;SDS011;59647;55.838;37.292;2022-08-19T06:12:33;12.25;;;3.45;;
71800;SDS011;59647;55.838;37.292;2022-08-19T06:15:02;7.55;;;3.60;;
71800;SDS011;59647;55.838;37.292;2022-08-19T06:17:33;21.92;;;4.20;;
71800;SDS011;59647;55.838;37.292;2022-08-19T06:20:00;10.55;;;3.60;;
71800;SDS011;59647;55.838;37.292;2022-08-19T06:22:28;9.77;;;3.47;;
71800;SDS011;59647;55.838;37.292;2022-08-19T06:24:55;9.60;;;3.47;;
71800;SDS011;59647;55.838;37.292;2022-08-19T06:27:21;9.63;;;3.17;;
71800;SDS011;59647;55.838;37.292;2022-08-19T06:29:47;13.82;;;4.15;;
71800;SDS011;59647;55.838;37.292;2022-08-19T06:32:14;11.95;;;3.60;;
71800;SDS011;59647;55.838;37.292;2022-08-19T06:34:41;11.13;;;3.53;;
71800;SDS011;59647;55.838;37.292;2022-08-19T06:37:08;10.82;;;3.13;;
71800;SDS011;59647;55.838;37.292;2022-08-19T06:39:35;7.85;;;3.65;;
71800;SDS011;59647;55.838;37.292;2022-08-19T06:42:04;7.53;;;3.65;;
71800;SDS011;59647;55.838;37.292;2022-08-19T06:44:34;7.88;;;3.65;;
71800;SDS011;59647;55.838;37.292;2022-08-19T06:47:05;15.60;;;3.65;;
71800;SDS011;59647;55.838;37.292;2022-08-19T06:49:33;12.23;;;3.70;;
71800;SDS011;59647;55.838;37.292;2022-08-19T06:52:00;9.52;;;3.55;;
71800;SDS011;59647;55.838;37.292;2022-08-19T06:54:26;12.15;;;4.35;;
71800;SDS011;59647;55.838;37.292;2022-08-19T06:56:54;14.82;;;3.92;;
71800;SDS011;59647;55.838;37.292;2022-08-19T06:59:22;13.57;;;3.85;;
71800;SDS011;59647;55.838;37.292;2022-08-19T07:01:53;11.10;;;3.90;;
71800;SDS011;59647;55.838;37.292;2022-08-19T07:04:21;15.80;;;3.83;;
71800;SDS011;59647;55.838;37.292;2022-08-19T07:06:59;21.38;;;3.67;;
71800;SDS011;59647;55.838;37.292;2022-08-19T07:09:27;16.52;;;4.13;;
71800;SDS011;59647;55.838;37.292;2022-08-19T07:11:54;7.55;;;3.88;;
71800;SDS011;59647;55.838;37.292;2022-08-19T07:14:24;10.60;;;3.88;;
71800;SDS011;59647;55.838;37.292;2022-08-19T07:16:53;11.98;;;3.78;;
71800;SDS011;59647;55.838;37.292;2022-08-19T07:19:22;17.05;;;4.00;;
71800;SDS011;59647;55.838;37.292;2022-08-19T07:21:52;9.20;;;3.72;;
71800;SDS011;59647;55.838;37.292;2022-08-19T07:24:19;15.82;;;3.97;;
71800;SDS011;59647;55.838;37.292;2022-08-19T07:26:49;16.63;;;4.60;;
71800;SDS011;59647;55.838;37.292;2022-08-19T07:29:17;10.48;;;3.67;;
71800;SDS011;59647;55.838;37.292;2022-08-19T07:31:44;10.88;;;3.70;;
71800;SDS011;59647;55.838;37.292;2022-08-19T07:34:10;16.15;;;3.75;;
71800;SDS011;59647;55.838;37.292;2022-08-19T07:36:39;11.13;;;3.95;;
71800;SDS011;59647;55.838;37.292;2022-08-19T07:39:08;8.50;;;4.30;;
71800;SDS011;59647;55.838;37.292;2022-08-19T07:41:36;7.70;;;4.15;;
71800;SDS011;59647;55.838;37.292;2022-08-19T07:44:03;12.57;;;3.88;;
71800;SDS011;59647;55.838;37.292;2022-08-19T07:46:33;14.30;;;3.72;;
71800;SDS011;59647;55.838;37.292;2022-08-19T07:49:00;14.63;;;3.85;;
71800;SDS011;59647;55.838;37.292;2022-08-19T07:51:27;27.92;;;4.22;;
71800;SDS011;59647;55.838;37.292;2022-08-19T07:53:53;17.25;;;4.82;;
71800;SDS011;59647;55.838;37.292;2022-08-19T07:56:20;7.68;;;3.75;;
71800;SDS011;59647;55.838;37.292;2022-08-19T07:58:48;8.55;;;4.13;;
71800;SDS011;59647;55.838;37.292;2022-08-19T08:01:17;13.30;;;3.75;;
71800;SDS011;59647;55.838;37.292;2022-08-19T08:03:47;12.43;;;3.58;;
71800;SDS011;59647;55.838;37.292;2022-08-19T08:06:32;22.83;;;3.45;;
71800;SDS011;59647;55.838;37.292;2022-08-19T08:09:17;7.75;;;3.47;;
71800;SDS011;59647;55.838;37.292;2022-08-19T08:14:18;10.82;;;3.47;;
71800;SDS011;59647;55.838;37.292;2022-08-19T08:16:47;9.48;;;3.42;;
71800;SDS011;59647;55.838;37.292;2022-08-19T08:19:15;8.57;;;3.17;;
71800;SDS011;59647;55.838;37.292;2022-08-19T08:21:42;9.73;;;2.88;;
71800;SDS011;59647;55.838;37.292;2022-08-19T08:24:08;9.35;;;3.08;;
71800;SDS011;59647;55.838;37.292;2022-08-19T08:26:35;7.38;;;3.00;;
71800;SDS011;59647;55.838;37.292;2022-08-19T08:29:01;22.52;;;3.67;;
71800;SDS011;59647;55.838;37.292;2022-08-19T08:31:28;19.50;;;3.88;;
71800;SDS011;59647;55.838;37.292;2022-08-19T08:33:54;7.72;;;2.50;;
71800;SDS011;59647;55.838;37.292;2022-08-19T08:36:19;7.22;;;2.75;;
71800;SDS011;59647;55.838;37.292;2022-08-19T08:38:46;10.40;;;2.85;;
71800;SDS011;59647;55.838;37.292;2022-08-19T08:43:53;15.27;;;3.55;;
71800;SDS011;59647;55.838;37.292;2022-08-19T08:46:27;11.23;;;2.80;;
71800;SDS011;59647;55.838;37.292;2022-08-19T08:52:13;6.97;;;2.30;;
71800;SDS011;59647;55.838;37.292;2022-08-19T08:54:48;12.55;;;3.13;;
71800;SDS011;59647;55.838;37.292;2022-08-19T09:02:56;10.43;;;3.58;;
71800;SDS011;59647;55.838;37.292;2022-08-19T09:05:25;18.50;;;3.78;;
71800;SDS011;59647;55.838;37.292;2022-08-19T09:08:04;10.15;;;3.45;;
71800;SDS011;59647;55.838;37.292;2022-08-19T09:10:39;10.55;;;4.10;;
71800;SDS011;59647;55.838;37.292;2022-08-19T09:13:23;9.68;;;3.78;;
71800;SDS011;59647;55.838;37.292;2022-08-19T09:16:21;16.63;;;4.03;;
71800;SDS011;59647;55.838;37.292;2022-08-19T09:18:52;11.52;;;4.18;;
71800;SDS011;59647;55.838;37.292;2022-08-19T09:21:24;13.48;;;4.35;;
71800;SDS011;59647;55.838;37.292;2022-08-19T09:23:52;10.90;;;3.90;;
71800;SDS011;59647;55.838;37.292;2022-08-19T09:26:19;12.20;;;3.75;;
71800;SDS011;59647;55.838;37.292;2022-08-19T09:28:48;17.58;;;4.40;;
71800;SDS011;59647;55.838;37.292;2022-08-19T09:31:19;28.02;;;3.75;;
71800;SDS011;59647;55.838;37.292;2022-08-19T09:33:50;8.38;;;3.70;;
71800;SDS011;59647;55.838;37.292;2022-08-19T09:36:17;20.20;;;3.60;;
71800;SDS011;59647;55.838;37.292;2022-08-19T09:38:47;14.63;;;3.85;;
71800;SDS011;59647;55.838;37.292;2022-08-19T09:41:17;27.25;;;4.47;;
71800;SDS011;59647;55.838;37.292;2022-08-19T09:43:45;17.08;;;4.05;;
71800;SDS011;59647;55.838;37.292;2022-08-19T09:46:13;7.00;;;3.35;;
71800;SDS011;59647;55.838;37.292;2022-08-19T09:48:39;8.32;;;3.75;;
71800;SDS011;59647;55.838;37.292;2022-08-19T09:51:13;9.55;;;3.97;;
71800;SDS011;59647;55.838;37.292;2022-08-19T09:53:42;11.63;;;3.30;;
71800;SDS011;59647;55.838;37.292;2022-08-19T09:56:09;5.72;;;3.38;;
71800;SDS011;59647;55.838;37.292;2022-08-19T09:58:36;15.07;;;4.82;;
71800;SDS011;59647;55.838;37.292;2022-08-19T10:01:03;11.10;;;3.72;;
71800;SDS011;59647;55.838;37.292;2022-08-19T10:03:31;10.65;;;3.70;;
71800;SDS011;59647;55.838;37.292;2022-08-19T10:05:58;8.88;;;3.05;;
71800;SDS011;59647;55.838;37.292;2022-08-19T10:08:27;12.90;;;4.00;;
71800;SDS011;59647;55.838;37.292;2022-08-19T10:10:55;11.38;;;3.78;;
71800;SDS011;59647;55.838;37.292;2022-08-19T10:13:23;9.50;;;3.10;;
71800;SDS011;59647;55.838;37.292;2022-08-19T10:15:54;14.95;;;4.13;;
71800;SDS011;59647;55.838;37.292;2022-08-19T10:18:22;14.30;;;3.85;;
71800;SDS011;59647;55.838;37.292;2022-08-19T10:20:50;10.20;;;3.75;;
71800;SDS011;59647;55.838;37.292;2022-08-19T10:23:18;10.45;;;3.28;;
71800;SDS011;59647;55.838;37.292;2022-08-19T10:25:48;35.45;;;4.68;;
71800;SDS011;59647;55.838;37.292;2022-08-19T10:28:19;12.33;;;3.27;;
71800;SDS011;59647;55.838;37.292;2022-08-19T10:30:45;12.50;;;3.47;;
71800;SDS011;59647;55.838;37.292;2022-08-19T10:33:11;8.05;;;3.03;;
71800;SDS011;59647;55.838;37.292;2022-08-19T10:35:39;9.50;;;3.38;;
71800;SDS011;59647;55.838;37.292;2022-08-19T10:38:04;13.05;;;3.30;;
71800;SDS011;59647;55.838;37.292;2022-08-19T10:40:30;7.55;;;3.35;;
71800;SDS011;59647;55.838;37.292;2022-08-19T10:42:56;9.45;;;3.20;;
71800;SDS011;59647;55.838;37.292;2022-08-19T10:45:23;24.90;;;4.13;;
71800;SDS011;59647;55.838;37.292;2022-08-19T10:47:52;10.75;;;3.45;;
71800;SDS011;59647;55.838;37.292;2022-08-19T10:50:18;11.52;;;4.00;;
71800;SDS011;59647;55.838;37.292;2022-08-19T10:53:21;20.70;;;4.40;;
71800;SDS011;59647;55.838;37.292;2022-08-19T10:55:50;7.65;;;3.97;;
71800;SDS011;59647;55.838;37.292;2022-08-19T10:58:34;8.18;;;3.95;;
71800;SDS011;59647;55.838;37.292;2022-08-19T11:01:00;19.38;;;4.35;;
71800;SDS011;59647;55.838;37.292;2022-08-19T11:03:26;8.80;;;4.38;;
71800;SDS011;59647;55.838;37.292;2022-08-19T11:05:59;21.58;;;4.68;;
71800;SDS011;59647;55.838;37.292;2022-08-19T11:08:30;9.38;;;4.03;;
71800;SDS011;59647;55.838;37.292;2022-08-19T11:10:59;22.75;;;4.93;;
71800;SDS011;59647;55.838;37.292;2022-08-19T11:13:27;20.48;;;4.60;;
71800;SDS011;59647;55.838;37.292;2022-08-19T11:16:00;10.25;;;4.53;;
71800;SDS011;59647;55.838;37.292;2022-08-19T11:18:30;11.05;;;4.47;;
71800;SDS011;59647;55.838;37.292;2022-08-19T11:21:04;10.40;;;3.92;;
71800;SDS011;59647;55.838;37.292;2022-08-19T11:23:31;13.30;;;4.47;;
71800;SDS011;59647;55.838;37.292;2022-08-19T11:25:57;13.50;;;4.13;;
71800;SDS011;59647;55.838;37.292;2022-08-19T11:28:24;8.68;;;3.17;;
71800;SDS011;59647;55.838;37.292;2022-08-19T11:30:50;19.35;;;4.05;;
71800;SDS011;59647;55.838;37.292;2022-08-19T11:33:16;16.17;;;3.90;;
71800;SDS011;59647;55.838;37.292;2022-08-19T11:35:42;12.20;;;3.80;;
71800;SDS011;59647;55.838;37.292;2022-08-19T11:38:07;17.38;;;4.13;;
71800;SDS011;59647;55.838;37.292;2022-08-19T11:40:33;24.75;;;3.25;;
71800;SDS011;59647;55.838;37.292;2022-08-19T11:42:59;10.57;;;3.08;;
71800;SDS011;59647;55.838;37.292;2022-08-19T11:45:26;9.05;;;2.75;;
71800;SDS011;59647;55.838;37.292;2022-08-19T11:47:53;11.48;;;2.78;;
71800;SDS011;59647;55.838;37.292;2022-08-19T11:50:19;11.68;;;3.10;;
71800;SDS011;59647;55.838;37.292;2022-08-19T11:52:45;28.00;;;3.47;;
71800;SDS011;59647;55.838;37.292;2022-08-19T11:55:12;20.92;;;2.90;;
71800;SDS011;59647;55.838;37.292;2022-08-19T11:57:39;7.07;;;2.55;;
71800;SDS011;59647;55.838;37.292;2022-08-19T12:00:06;7.93;;;3.15;;
71800;SDS011;59647;55.838;37.292;2022-08-19T12:02:33;4.45;;;2.42;;
71800;SDS011;59647;55.838;37.292;2022-08-19T12:04:59;6.47;;;2.55;;
71800;SDS011;59647;55.838;37.292;2022-08-19T12:07:28;10.77;;;2.70;;
71800;SDS011;59647;55.838;37.292;2022-08-19T12:09:56;12.25;;;2.88;;
71800;SDS011;59647;55.838;37.292;2022-08-19T12:12:22;7.13;;;2.70;;
71800;SDS011;59647;55.838;37.292;2022-08-19T12:14:49;8.60;;;2.92;;
71800;SDS011;59647;55.838;37.292;2022-08-19T12:17:25;8.77;;;2.90;;
71800;SDS011;59647;55.838;37.292;2022-08-19T12:19:52;9.40;;;2.80;;
71800;SDS011;59647;55.838;37.292;2022-08-19T12:22:18;19.25;;;2.70;;
71800;SDS011;59647;55.838;37.292;2022-08-19T12:24:45;11.85;;;2.85;;
71800;SDS011;59647;55.838;37.292;2022-08-19T12:27:10;7.40;;;3.17;;
71800;SDS011;59647;55.838;37.292;2022-08-19T12:29:36;6.72;;;2.55;;
71800;SDS011;59647;55.838;37.292;2022-08-19T12:32:02;7.13;;;2.20;;
71800;SDS011;59647;55.838;37.292;2022-08-19T12:34:29;9.82;;;3.13;;
71800;SDS011;59647;55.838;37.292;2022-08-19T12:36:57;8.15;;;3.35;;
71800;SDS011;59647;55.838;37.292;2022-08-19T12:39:24;7.32;;;2.97;;
71800;SDS011;59647;55.838;37.292;2022-08-19T12:41:50;8.57;;;2.28;;
71800;SDS011;59647;55.838;37.292;2022-08-19T12:44:16;9.57;;;2.63;;
71800;SDS011;59647;55.838;37.292;2022-08-19T12:46:43;8.38;;;2.17;;
71800;SDS011;59647;55.838;37.292;2022-08-19T12:49:08;11.27;;;2.63;;
71800;SDS011;59647;55.838;37.292;2022-08-19T12:51:35;14.85;;;3.30;;
71800;SDS011;59647;55.838;37.292;2022-08-19T12:54:02;6.70;;;2.65;;
71800;SDS011;59647;55.838;37.292;2022-08-19T12:56:29;8.32;;;2.65;;
71800;SDS011;59647;55.838;37.292;2022-08-19T12:58:56;22.15;;;2.97;;
71800;SDS011;59647;55.838;37.292;2022-08-19T13:01:22;7.72;;;2.28;;
71800;SDS011;59647;55.838;37.292;2022-08-19T13:03:47;9.95;;;2.55;;
71800;SDS011;59647;55.838;37.292;2022-08-19T13:06:13;7.00;;;2.22;;
71800;SDS011;59647;55.838;37.292;2022-08-19T13:08:40;6.70;;;2.60;;
71800;SDS011;59647;55.838;37.292;2022-08-19T13:11:06;6.03;;;2.22;;
71800;SDS011;59647;55.838;37.292;2022-08-19T13:13:33;10.23;;;2.85;;
71800;SDS011;59647;55.838;37.292;2022-08-19T13:16:00;11.15;;;2.80;;
71800;SDS011;59647;55.838;37.292;2022-08-19T13:18:28;11.13;;;2.90;;
71800;SDS011;59647;55.838;37.292;2022-08-19T13:20:54;13.50;;;2.80;;
71800;SDS011;59647;55.838;37.292;2022-08-19T13:23:20;5.55;;;2.22;;
71800;SDS011;59647;55.838;37.292;2022-08-19T13:25:55;9.35;;;2.78;;
71800;SDS011;59647;55.838;37.292;2022-08-19T13:28:21;9.23;;;2.95;;
71800;SDS011;59647;55.838;37.292;2022-08-19T13:30:47;19.13;;;3.22;;
71800;SDS011;59647;55.838;37.292;2022-08-19T13:33:31;10.38;;;2.60;;
71800;SDS011;59647;55.838;37.292;2022-08-19T13:35:58;19.08;;;3.08;;
71800;SDS011;59647;55.838;37.292;2022-08-19T13:38:25;8.15;;;2.80;;
71800;SDS011;59647;55.838;37.292;2022-08-19T13:40:53;10.45;;;3.28;;
71800;SDS011;59647;55.838;37.292;2022-08-19T13:43:21;9.30;;;3.25;;
71800;SDS011;59647;55.838;37.292;2022-08-19T13:45:51;9.65;;;4.63;;
71800;SDS011;59647;55.838;37.292;2022-08-19T13:48:21;11.00;;;4.10;;
71800;SDS011;59647;55.838;37.292;2022-08-19T13:50:47;9.55;;;4.13;;
71800;SDS011;59647;55.838;37.292;2022-08-19T13:53:13;11.35;;;4.53;;
71800;SDS011;59647;55.838;37.292;2022-08-19T13:55:40;11.02;;;4.45;;
71800;SDS011;59647;55.838;37.292;2022-08-19T13:58:08;11.73;;;3.58;;
71800;SDS011;59647;55.838;37.292;2022-08-19T14:00:37;14.38;;;3.72;;
71800;SDS011;59647;55.838;37.292;2022-08-19T14:03:07;8.10;;;3.20;;
71800;SDS011;59647;55.838;37.292;2022-08-19T14:05:33;6.75;;;3.63;;
71800;SDS011;59647;55.838;37.292;2022-08-19T14:07:59;11.48;;;4.20;;
71800;SDS011;59647;55.838;37.292;2022-08-19T14:10:25;21.90;;;4.93;;
71800;SDS011;59647;55.838;37.292;2022-08-19T14:12:54;9.55;;;3.45;;
71800;SDS011;59647;55.838;37.292;2022-08-19T14:15:21;9.07;;;3.60;;
71800;SDS011;59647;55.838;37.292;2022-08-19T14:17:48;10.63;;;3.30;;
71800;SDS011;59647;55.838;37.292;2022-08-19T14:20:14;9.25;;;3.40;;
71800;SDS011;59647;55.838;37.292;2022-08-19T14:22:41;14.63;;;4.03;;
71800;SDS011;59647;55.838;37.292;2022-08-19T14:27:57;11.00;;;3.25;;
71800;SDS011;59647;55.838;37.292;2022-08-19T14:30:25;11.10;;;3.50;;
71800;SDS011;59647;55.838;37.292;2022-08-19T14:32:53;11.05;;;3.80;;
71800;SDS011;59647;55.838;37.292;2022-08-19T14:35:19;12.88;;;3.42;;
71800;SDS011;59647;55.838;37.292;2022-08-19T14:37:47;8.80;;;3.70;;
71800;SDS011;59647;55.838;37.292;2022-08-19T14:40:15;10.15;;;3.17;;
71800;SDS011;59647;55.838;37.292;2022-08-19T14:42:43;5.82;;;3.38;;
71800;SDS011;59647;55.838;37.292;2022-08-19T14:45:10;7.57;;;3.33;;
71800;SDS011;59647;55.838;37.292;2022-08-19T14:47:36;10.63;;;3.17;;
71800;SDS011;59647;55.838;37.292;2022-08-19T14:50:04;22.05;;;3.90;;